Time;durP1;ratioP1;P1;durP2;ratioP2;P2;SDS_P1;SDS_P2;PMS_P1;PMS_P2;Temp;Humidity;BMP_temperature;BMP_pressure;BME280_temperature;BME280_humidity;BME280_pressure;Samples;Min_cycle;Max_cycle;Signal;HPM_P1;HPM_P2
2022/11/11 05:31:40;;;;;;;;;13.33;11.00;;;;;-147.14;100.00;58812.66;5368608;23;46501;-64
2022/11/11 05:34:05;;;;;;;;;15.00;12.00;;;;;-147.14;100.00;58812.66;5012690;28;61643;-65
2022/11/11 05:36:31;;;;;;;;;10.33;8.67;;;;;-147.14;100.00;58812.66;5015328;28;46174;-65
2022/11/11 05:38:56;;;;;;;;;13.33;12.33;;;;;-147.14;100.00;58812.66;5008618;28;45388;-65
2022/11/11 05:41:21;;;;;;;;;14.33;13.33;;;;;-147.14;100.00;58812.66;4998281;28;45441;-65
2022/11/11 05:43:47;;;;;;;;;12.67;10.33;;;;;-147.14;100.00;58812.66;5003282;28;63411;-65
2022/11/11 05:46:12;;;;;;;;;12.67;11.67;;;;;-147.14;100.00;58812.66;5011701;28;45999;-65
2022/11/11 05:49:14;;;;;;;;;12.00;12.00;;;;;-147.14;100.00;58812.66;5009327;28;45372;-65
2022/11/11 05:51:26;;;;;;;;;12.33;11.00;;;;;-147.14;100.00;58812.66;5006007;28;45521;-65
2022/11/11 05:53:52;;;;;;;;;12.00;12.00;;;;;-147.14;100.00;58812.66;5015653;28;45443;-65
2022/11/11 05:56:17;;;;;;;;;16.67;13.00;;;;;-147.14;100.00;58812.66;5015686;28;46369;-65
2022/11/11 05:58:43;;;;;;;;;10.67;10.67;;;;;-147.14;100.00;58812.66;5014205;28;57123;-65
2022/11/11 06:01:08;;;;;;;;;14.00;12.00;;;;;-147.14;100.00;58812.66;5004195;28;45538;-65
2022/11/11 06:03:33;;;;;;;;;11.33;10.00;;;;;-147.14;100.00;58812.66;4997763;28;68748;-65
2022/11/11 06:05:59;;;;;;;;;13.00;9.67;;;;;-147.14;100.00;58812.66;4997724;28;60218;-65
2022/11/11 06:08:24;;;;;;;;;11.67;11.67;;;;;-147.14;100.00;58812.66;5004984;28;45411;-65
2022/11/11 06:10:52;;;;;;;;;12.33;12.33;;;;;-147.14;100.00;58812.66;5000599;28;63721;-65
2022/11/11 06:13:17;;;;;;;;;14.33;11.33;;;;;-147.14;100.00;58812.66;5007498;28;45352;-65
2022/11/11 06:15:42;;;;;;;;;11.00;11.00;;;;;-147.14;100.00;58812.66;5006305;28;45453;-65
2022/11/11 06:18:08;;;;;;;;;11.00;10.67;;;;;-147.14;100.00;58812.66;5013362;28;67767;-65
2022/11/11 06:20:36;;;;;;;;;12.00;11.00;;;;;-147.14;100.00;58812.66;5011825;28;45383;-65
2022/11/11 06:23:03;;;;;;;;;12.00;9.67;;;;;-147.14;100.00;58812.66;4997785;28;45405;-65
2022/11/11 06:28:14;;;;;;;;;11.00;9.33;;;;;-147.14;100.00;58812.66;5004965;28;45429;-65
2022/11/11 06:30:40;;;;;;;;;13.00;10.33;;;;;-147.14;100.00;58812.66;5005479;28;45371;-65
2022/11/11 06:33:06;;;;;;;;;11.67;11.00;;;;;-147.14;100.00;58812.66;5004510;28;45583;-65
2022/11/11 06:35:33;;;;;;;;;11.33;9.00;;;;;-147.14;100.00;58812.66;5005723;28;45992;-65
2022/11/11 06:37:59;;;;;;;;;11.00;11.00;;;;;-147.14;100.00;58812.66;4997868;28;45468;-65
2022/11/11 06:40:24;;;;;;;;;10.00;10.00;;;;;-147.14;100.00;58812.66;4999064;28;45396;-65
2022/11/11 06:42:49;;;;;;;;;9.67;9.00;;;;;-147.14;100.00;58812.66;4998281;28;45387;-65
2022/11/11 06:45:15;;;;;;;;;9.00;7.67;;;;;-147.14;100.00;58812.66;4998582;28;45357;-65
2022/11/11 06:47:41;;;;;;;;;10.00;8.00;;;;;-147.14;100.00;58812.66;5003252;28;45217;-64
2022/11/11 06:50:07;;;;;;;;;16.67;8.67;;;;;-147.14;100.00;58812.66;5006206;28;45372;-64
2022/11/11 06:52:32;;;;;;;;;9.33;7.33;;;;;-147.14;100.00;58812.66;5001669;28;45551;-64
2022/11/11 06:54:58;;;;;;;;;11.33;9.00;;;;;-147.14;100.00;58812.66;4996850;28;70217;-64
2022/11/11 06:57:23;;;;;;;;;9.33;8.00;;;;;-147.14;100.00;58812.66;4998012;28;52408;-65
2022/11/11 06:59:48;;;;;;;;;7.00;5.67;;;;;-147.14;100.00;58812.66;4997050;28;66521;-65
2022/11/11 07:02:14;;;;;;;;;8.67;8.33;;;;;-147.14;100.00;58812.66;4998268;28;45864;-65
2022/11/11 07:04:39;;;;;;;;;7.00;6.00;;;;;-147.14;100.00;58812.66;4998286;28;45415;-64
2022/11/11 07:07:04;;;;;;;;;9.00;7.00;;;;;-147.14;100.00;58812.66;4994929;28;72545;-64
2022/11/11 07:09:30;;;;;;;;;8.00;8.00;;;;;-147.14;100.00;58812.66;4998674;28;56062;-64
2022/11/11 07:11:55;;;;;;;;;9.33;9.00;;;;;-147.14;100.00;58812.66;5010945;28;68307;-64
2022/11/11 07:14:20;;;;;;;;;9.00;8.33;;;;;-147.14;100.00;58812.66;4996763;28;72786;-64
2022/11/11 07:16:46;;;;;;;;;9.00;6.33;;;;;-147.14;100.00;58812.66;5004701;28;67076;-64
2022/11/11 07:19:11;;;;;;;;;9.33;8.00;;;;;-147.14;100.00;58812.66;5004379;28;66831;-64
2022/11/11 07:21:36;;;;;;;;;7.33;7.33;;;;;-147.14;100.00;58812.66;4996989;28;67829;-64
2022/11/11 07:24:02;;;;;;;;;7.67;6.00;;;;;-147.14;100.00;58812.66;4996358;28;64868;-65
2022/11/11 07:26:27;;;;;;;;;10.33;9.00;;;;;-147.14;100.00;58812.66;4997879;28;45325;-64
2022/11/11 07:28:52;;;;;;;;;7.00;7.00;;;;;-147.14;100.00;58812.66;5000406;28;60654;-64
2022/11/11 07:31:18;;;;;;;;;8.33;7.00;;;;;-147.14;100.00;58812.66;5000281;28;59920;-65
2022/11/11 07:33:44;;;;;;;;;12.33;9.67;;;;;-147.14;100.00;58812.66;5000743;28;47278;-65
2022/11/11 07:36:09;;;;;;;;;11.00;9.00;;;;;-147.14;100.00;58812.66;5000062;28;57857;-65
2022/11/11 07:38:34;;;;;;;;;8.00;7.67;;;;;-147.14;100.00;58812.66;5001754;28;45367;-65
2022/11/11 07:41:00;;;;;;;;;11.33;10.00;;;;;-147.14;100.00;58812.66;5000834;28;45543;-65
2022/11/11 07:43:25;;;;;;;;;8.33;8.00;;;;;-147.14;100.00;58812.66;5009338;28;66431;-65
2022/11/11 07:45:50;;;;;;;;;7.00;7.00;;;;;-147.14;100.00;58812.66;5020137;28;45333;-64
2022/11/11 07:48:16;;;;;;;;;10.67;7.00;;;;;-147.14;100.00;58812.66;5004618;28;62556;-65
2022/11/11 07:50:41;;;;;;;;;9.00;9.00;;;;;-147.14;100.00;58812.66;5006790;28;64091;-65
2022/11/11 07:53:06;;;;;;;;;10.67;9.00;;;;;-147.14;100.00;58812.66;5003379;28;46873;-65
2022/11/11 07:55:32;;;;;;;;;12.00;9.00;;;;;-147.14;100.00;58812.66;5016785;28;65490;-65
2022/11/11 07:57:57;;;;;;;;;5.67;5.67;;;;;-147.14;100.00;58812.66;5018318;28;45370;-64
2022/11/11 08:00:23;;;;;;;;;10.67;8.67;;;;;-147.14;100.00;58812.66;5011627;28;47898;-64
2022/11/11 08:02:48;;;;;;;;;9.00;8.00;;;;;-147.14;100.00;58812.66;5004162;28;46270;-64
2022/11/11 08:05:14;;;;;;;;;11.33;11.33;;;;;-147.14;100.00;58812.66;5002421;28;45477;-64
2022/11/11 08:07:41;;;;;;;;;9.33;7.33;;;;;-147.14;100.00;58812.66;5016754;28;45451;-64
2022/11/11 08:10:07;;;;;;;;;10.00;9.00;;;;;-147.14;100.00;58812.66;5013030;28;45422;-64
2022/11/11 08:15:18;;;;;;;;;10.00;8.33;;;;;-147.14;100.00;58812.66;5003088;28;45325;-65
2022/11/11 08:17:43;;;;;;;;;14.67;10.67;;;;;-147.14;100.00;58812.66;5003242;28;64149;-64
2022/11/11 08:20:09;;;;;;;;;11.67;10.67;;;;;-147.14;100.00;58812.66;5015368;28;64291;-64
2022/11/11 08:22:38;;;;;;;;;10.33;7.67;;;;;-147.14;100.00;58812.66;5013529;28;47207;-66
2022/11/11 08:25:09;;;;;;;;;10.00;8.33;;;;;-147.14;100.00;58812.66;5003263;28;45916;-64
2022/11/11 08:27:35;;;;;;;;;13.00;11.00;;;;;-147.14;100.00;58812.66;5015482;28;45508;-65
2022/11/11 08:30:01;;;;;;;;;11.00;10.33;;;;;-147.14;100.00;58812.66;5011365;28;45715;-65
2022/11/11 08:32:27;;;;;;;;;8.33;7.33;;;;;-147.14;100.00;58812.66;4999637;28;45408;-65
2022/11/11 08:34:52;;;;;;;;;13.67;11.00;;;;;-147.14;100.00;58812.66;5007314;28;45320;-66
2022/11/11 08:37:17;;;;;;;;;13.67;11.67;;;;;-147.14;100.00;58812.66;5001348;28;46677;-64
2022/11/11 08:39:43;;;;;;;;;14.00;14.00;;;;;-147.14;100.00;58812.66;4999119;28;68474;-64
2022/11/11 08:42:08;;;;;;;;;13.00;13.00;;;;;-147.14;100.00;58812.66;4999063;28;46297;-64
2022/11/11 08:44:33;;;;;;;;;16.00;15.67;;;;;-147.14;100.00;58812.66;4999465;28;60991;-64
2022/11/11 08:46:59;;;;;;;;;12.67;12.67;;;;;-147.14;100.00;58812.66;5002178;28;65886;-65
2022/11/11 08:49:24;;;;;;;;;16.00;12.33;;;;;-147.14;100.00;58812.66;5002364;28;64612;-65
2022/11/11 08:51:49;;;;;;;;;13.00;13.00;;;;;-147.14;100.00;58812.66;5000366;28;69274;-65
2022/11/11 08:54:15;;;;;;;;;14.67;14.00;;;;;-147.14;100.00;58812.66;5001981;28;70480;-65
2022/11/11 08:56:41;;;;;;;;;11.33;11.33;;;;;-147.14;100.00;58812.66;5007493;28;63575;-65
2022/11/11 08:59:08;;;;;;;;;11.67;11.67;;;;;-147.14;100.00;58812.66;5015261;28;45603;-65
2022/11/11 09:01:34;;;;;;;;;14.00;13.33;;;;;-147.14;100.00;58812.66;5009574;28;46742;-64
2022/11/11 09:03:59;;;;;;;;;11.67;11.67;;;;;-147.14;100.00;58812.66;5001870;28;45450;-64
2022/11/11 09:06:25;;;;;;;;;10.33;10.33;;;;;-147.14;100.00;58812.66;5000956;28;62238;-64
2022/11/11 09:08:50;;;;;;;;;13.00;10.33;;;;;-147.14;100.00;58812.66;5002691;28;45482;-64
2022/11/11 09:11:15;;;;;;;;;10.67;9.67;;;;;-147.14;100.00;58812.66;5013100;28;71470;-64
2022/11/11 09:13:41;;;;;;;;;13.00;11.67;;;;;-147.14;100.00;58812.66;5004767;28;45365;-64
2022/11/11 09:16:07;;;;;;;;;13.00;11.00;;;;;-147.14;100.00;58812.66;4999738;28;45404;-72
2022/11/11 09:18:32;;;;;;;;;8.33;7.33;;;;;-147.14;100.00;58812.66;5000000;28;45411;-72
2022/11/11 09:20:59;;;;;;;;;13.33;12.67;;;;;-147.14;100.00;58812.66;5013129;28;46074;-74
2022/11/11 09:23:24;;;;;;;;;13.00;13.00;;;;;-147.14;100.00;58812.66;5003414;28;45459;-73
2022/11/11 09:25:49;;;;;;;;;10.67;10.33;;;;;-147.14;100.00;58812.66;4996978;28;67522;-73
2022/11/11 09:28:15;;;;;;;;;18.33;15.33;;;;;-147.14;100.00;58812.66;5001311;28;68632;-74
2022/11/11 09:30:40;;;;;;;;;13.67;11.67;;;;;-147.14;100.00;58812.66;5011026;28;45965;-73
2022/11/11 09:33:06;;;;;;;;;15.00;12.33;;;;;-147.14;100.00;58812.66;5004235;28;45630;-73
2022/11/11 09:35:31;;;;;;;;;14.67;11.67;;;;;-147.14;100.00;58812.66;5006898;28;61120;-73
2022/11/11 09:37:58;;;;;;;;;8.33;6.33;;;;;-147.14;100.00;58812.66;5003329;28;45961;-73
2022/11/11 09:40:26;;;;;;;;;13.00;13.00;;;;;-147.14;100.00;58812.66;5006184;28;46137;-73
2022/11/11 09:43:29;;;;;;;;;13.67;13.67;;;;;-147.14;100.00;58812.66;5003472;28;45836;-72
2022/11/11 09:46:22;;;;;;;;;13.67;13.67;;;;;-147.14;100.00;58812.66;4996452;28;45949;-73
2022/11/11 09:49:17;;;;;;;;;15.33;13.00;;;;;-147.14;100.00;58812.66;5016026;28;45590;-73
2022/11/11 09:51:51;;;;;;;;;14.33;11.00;;;;;-147.14;100.00;58812.66;4998842;28;46405;-73
2022/11/11 09:54:26;;;;;;;;;12.00;12.00;;;;;-147.14;100.00;58812.66;5000880;28;45821;-74
2022/11/11 09:56:52;;;;;;;;;12.33;11.00;;;;;-147.14;100.00;58812.66;5002039;28;45475;-73
2022/11/11 09:59:23;;;;;;;;;9.67;9.67;;;;;-147.14;100.00;58812.66;4998561;28;67021;-74
2022/11/11 10:01:52;;;;;;;;;9.33;8.33;;;;;-147.14;100.00;58812.66;4998195;28;45436;-74
2022/11/11 10:04:26;;;;;;;;;7.00;7.00;;;;;-147.14;100.00;58812.66;4996999;28;45808;-74
2022/11/11 10:06:56;;;;;;;;;9.33;9.33;;;;;-147.14;100.00;58812.66;4999738;28;45426;-74
2022/11/11 10:09:48;;;;;;;;;10.00;9.00;;;;;-147.14;100.00;58812.66;4999710;28;45538;-73
2022/11/11 10:12:17;;;;;;;;;9.33;9.33;;;;;-147.14;100.00;58812.66;5006162;28;46384;-73
2022/11/11 10:14:45;;;;;;;;;12.67;11.00;;;;;-147.14;100.00;58812.66;4996962;28;45461;-74
2022/11/11 10:17:49;;;;;;;;;11.33;9.00;;;;;-147.14;100.00;58812.66;4996645;28;45603;-75
2022/11/11 10:20:27;;;;;;;;;13.33;10.67;;;;;-147.14;100.00;58812.66;4936820;28;45389;-75
2022/11/11 10:23:07;;;;;;;;;8.33;8.00;;;;;-147.14;100.00;58812.66;4928128;28;45559;-74
2022/11/11 10:25:33;;;;;;;;;2.33;1.00;;;;;-147.14;100.00;58812.66;4972616;28;45529;-73
2022/11/11 10:28:00;;;;;;;;;14.00;11.00;;;;;-147.14;100.00;58812.66;5002817;28;45563;-73
2022/11/11 10:30:31;;;;;;;;;9.33;9.33;;;;;-147.14;100.00;58812.66;4999600;28;45830;-68
2022/11/11 10:33:17;;;;;;;;;9.33;9.33;;;;;-147.14;100.00;58812.66;4986691;28;46154;-68
2022/11/11 10:35:44;;;;;;;;;15.00;12.00;;;;;-147.14;100.00;58812.66;4963490;28;45468;-68
2022/11/11 10:38:09;;;;;;;;;14.00;10.33;;;;;-147.14;100.00;58812.66;4976366;28;64284;-68
2022/11/11 10:40:54;;;;;;;;;15.33;13.67;;;;;-147.14;100.00;58812.66;4981910;28;45535;-69
2022/11/11 10:43:25;;;;;;;;;19.67;16.33;;;;;-147.14;100.00;58812.66;4966118;28;46460;-68
2022/11/11 10:46:01;;;;;;;;;25.33;24.67;;;;;-147.14;100.00;58812.66;4989134;28;45874;-69
2022/11/11 10:48:52;;;;;;;;;23.67;20.33;;;;;-147.14;100.00;58812.66;4978565;28;45302;-68
2022/11/11 10:51:18;;;;;;;;;20.67;19.00;;;;;-147.14;100.00;58812.66;4954119;28;45633;-68
2022/11/11 10:54:02;;;;;;;;;18.33;15.00;;;;;-147.14;100.00;58812.66;4984640;28;46295;-68
2022/11/11 10:56:33;;;;;;;;;19.33;18.67;;;;;-147.14;100.00;58812.66;4973770;28;45403;-68
2022/11/11 10:59:05;;;;;;;;;17.33;17.33;;;;;-147.14;100.00;58812.66;4973151;28;45666;-68
2022/11/11 11:01:35;;;;;;;;;13.67;12.00;;;;;-147.14;100.00;58812.66;4978207;28;45628;-68
2022/11/11 11:04:30;;;;;;;;;17.67;14.33;;;;;-147.14;100.00;58812.66;4963165;28;46189;-69
2022/11/11 11:06:58;;;;;;;;;13.00;12.00;;;;;-147.14;100.00;58812.66;4976583;28;45491;-68
2022/11/11 11:09:34;;;;;;;;;13.33;12.00;;;;;-147.14;100.00;58812.66;4965011;28;45401;-68
2022/11/11 11:12:07;;;;;;;;;14.00;13.00;;;;;-147.14;100.00;58812.66;4986986;28;45477;-69
2022/11/11 11:14:40;;;;;;;;;17.00;16.33;;;;;-147.14;100.00;58812.66;5000621;28;45381;-70
2022/11/11 11:17:18;;;;;;;;;15.00;13.00;;;;;-147.14;100.00;58812.66;4975900;28;45579;-70
2022/11/11 11:19:44;;;;;;;;;29.00;24.67;;;;;-147.14;100.00;58812.66;4979859;28;45594;-69
2022/11/11 11:22:09;;;;;;;;;17.33;15.33;;;;;-147.14;100.00;58812.66;4987981;28;63733;-70
2022/11/11 11:24:36;;;;;;;;;13.00;13.00;;;;;-147.14;100.00;58812.66;4999538;28;45354;-68
2022/11/11 11:27:06;;;;;;;;;15.67;15.00;;;;;-147.14;100.00;58812.66;4988455;28;45462;-68
2022/11/11 11:29:32;;;;;;;;;15.00;14.00;;;;;-147.14;100.00;58812.66;4977368;28;45504;-69
2022/11/11 11:32:26;;;;;;;;;15.00;15.00;;;;;-147.14;100.00;58812.66;5010793;28;45451;-69
2022/11/11 11:34:55;;;;;;;;;18.00;17.67;;;;;-147.14;100.00;58812.66;5009604;28;46818;-69
2022/11/11 11:37:23;;;;;;;;;13.00;13.00;;;;;-147.14;100.00;58812.66;5009479;28;45447;-68
2022/11/11 11:39:58;;;;;;;;;14.00;13.33;;;;;-147.14;100.00;58812.66;5001917;28;45353;-69
2022/11/11 11:42:38;;;;;;;;;16.00;16.00;;;;;-147.14;100.00;58812.66;5006566;28;45501;-69
2022/11/11 11:45:22;;;;;;;;;15.00;13.67;;;;;-147.14;100.00;58812.66;5007055;28;45455;-69
2022/11/11 11:47:57;;;;;;;;;16.67;15.00;;;;;-147.14;100.00;58812.66;4999831;28;45428;-69
2022/11/11 11:50:45;;;;;;;;;19.00;16.00;;;;;-147.14;100.00;58812.66;5014944;28;45688;-69
2022/11/11 11:53:38;;;;;;;;;12.33;12.33;;;;;-147.14;100.00;58812.66;5007399;28;45447;-69
2022/11/11 11:56:19;;;;;;;;;17.67;15.67;;;;;-147.14;100.00;58812.66;5008091;28;45715;-69
2022/11/11 11:58:57;;;;;;;;;19.67;19.67;;;;;-147.14;100.00;58812.66;5011472;28;45415;-69
2022/11/11 12:01:51;;;;;;;;;15.33;15.33;;;;;-147.14;100.00;58812.66;5017008;28;45428;-68
2022/11/11 12:04:58;;;;;;;;;15.00;15.00;;;;;-147.14;100.00;58812.66;5004331;28;45424;-70
2022/11/11 12:07:26;;;;;;;;;15.67;15.67;;;;;-147.14;100.00;58812.66;4993561;28;46362;-70
2022/11/11 12:10:12;;;;;;;;;14.00;13.00;;;;;-147.14;100.00;58812.66;5016747;28;45447;-69
2022/11/11 12:12:54;;;;;;;;;17.33;14.33;;;;;-147.14;100.00;58812.66;5000603;28;45316;-68
2022/11/11 12:15:32;;;;;;;;;14.67;14.67;;;;;-147.14;100.00;58812.66;5002220;28;45797;-69
2022/11/11 12:18:06;;;;;;;;;15.00;11.67;;;;;-147.14;100.00;58812.66;5009541;28;45422;-70
2022/11/11 12:20:39;;;;;;;;;17.00;15.67;;;;;-147.14;100.00;58812.66;5010657;28;45451;-69
2022/11/11 12:23:18;;;;;;;;;18.67;13.33;;;;;-147.14;100.00;58812.66;5003462;28;45715;-70
2022/11/11 12:26:08;;;;;;;;;15.00;14.00;;;;;-147.14;100.00;58812.66;5012991;28;45583;-69
2022/11/11 12:28:55;;;;;;;;;14.33;12.67;;;;;-147.14;100.00;58812.66;5010369;28;45467;-69
2022/11/11 12:31:35;;;;;;;;;20.00;18.00;;;;;-147.14;100.00;58812.66;5006686;28;45431;-69
2022/11/11 12:34:19;;;;;;;;;15.67;15.00;;;;;-147.14;100.00;58812.66;5003556;28;45721;-70
2022/11/11 12:37:02;;;;;;;;;11.33;11.33;;;;;-147.14;100.00;58812.66;5006741;28;45393;-69
2022/11/11 12:39:59;;;;;;;;;16.00;16.00;;;;;-147.14;100.00;58812.66;5005935;28;45440;-69
2022/11/11 12:42:34;;;;;;;;;16.67;15.33;;;;;-147.14;100.00;58812.66;5012023;28;45225;-69
2022/11/11 12:45:20;;;;;;;;;17.00;17.00;;;;;-147.14;100.00;58812.66;5002452;28;45452;-69
2022/11/11 12:48:12;;;;;;;;;19.00;16.00;;;;;-147.14;100.00;58812.66;5005308;28;45610;-69
2022/11/11 12:50:44;;;;;;;;;17.33;17.33;;;;;-147.14;100.00;58812.66;5002208;28;46139;-69
2022/11/11 12:53:21;;;;;;;;;20.00;15.33;;;;;-147.14;100.00;58812.66;5008955;28;45453;-69
2022/11/11 12:56:05;;;;;;;;;25.67;25.33;;;;;-147.14;100.00;58812.66;5024736;28;45454;-69
2022/11/11 12:58:39;;;;;;;;;23.67;20.00;;;;;-147.14;100.00;58812.66;5009362;28;45363;-70
2022/11/11 13:01:32;;;;;;;;;21.00;19.33;;;;;-147.14;100.00;58812.66;5024557;28;46193;-69
2022/11/11 13:04:35;;;;;;;;;20.67;18.00;;;;;-147.14;100.00;58812.66;5006836;28;45453;-69
2022/11/11 13:07:32;;;;;;;;;17.33;17.33;;;;;-147.14;100.00;58812.66;4998979;28;45621;-69
2022/11/11 13:10:08;;;;;;;;;14.33;14.33;;;;;-147.14;100.00;58812.66;5023331;28;45739;-69
2022/11/11 13:12:39;;;;;;;;;17.33;17.00;;;;;-147.14;100.00;58812.66;5001538;28;46301;-69
2022/11/11 13:15:25;;;;;;;;;19.67;16.67;;;;;-147.14;100.00;58812.66;4999215;28;45676;-69
2022/11/11 13:17:50;;;;;;;;;17.33;17.00;;;;;-147.14;100.00;58812.66;5013112;28;45422;-69
2022/11/11 13:20:28;;;;;;;;;21.67;17.33;;;;;-147.14;100.00;58812.66;5000492;28;45514;-69
2022/11/11 13:22:54;;;;;;;;;18.00;18.00;;;;;-147.14;100.00;58812.66;5012511;28;45452;-69
2022/11/11 13:25:24;;;;;;;;;23.33;18.67;;;;;-147.14;100.00;58812.66;5007681;28;65375;-68
2022/11/11 13:28:01;;;;;;;;;17.00;16.33;;;;;-147.14;100.00;58812.66;5002044;28;45556;-69
2022/11/11 13:30:48;;;;;;;;;18.33;15.00;;;;;-147.14;100.00;58812.66;5010224;28;45469;-69
2022/11/11 13:33:17;;;;;;;;;20.33;20.33;;;;;-147.14;100.00;58812.66;5002316;28;46236;-69
2022/11/11 13:35:55;;;;;;;;;17.00;17.00;;;;;-147.14;100.00;58812.66;5015717;28;45519;-70
2022/11/11 13:38:36;;;;;;;;;19.67;18.00;;;;;-147.14;100.00;58812.66;5015573;28;45557;-68
2022/11/11 13:41:03;;;;;;;;;12.33;11.33;;;;;-147.14;100.00;58812.66;5011378;28;45300;-67
2022/11/11 13:43:33;;;;;;;;;20.00;18.67;;;;;-147.14;100.00;58812.66;5009157;28;46362;-68
2022/11/11 13:46:00;;;;;;;;;21.67;15.67;;;;;-147.14;100.00;58812.66;5003170;28;45520;-68
2022/11/11 13:48:28;;;;;;;;;13.67;13.67;;;;;-147.14;100.00;58812.66;5009096;28;45444;-69
2022/11/11 13:51:30;;;;;;;;;16.00;15.33;;;;;-147.14;100.00;58812.66;5007963;28;45352;-68
2022/11/11 13:53:56;;;;;;;;;16.67;16.00;;;;;-147.14;100.00;58812.66;5002895;28;46623;-68
2022/11/11 13:56:29;;;;;;;;;19.00;17.33;;;;;-147.14;100.00;58812.66;5009673;28;45411;-68
2022/11/11 13:58:55;;;;;;;;;18.67;15.00;;;;;-147.14;100.00;58812.66;5013183;28;45440;-68
2022/11/11 14:01:21;;;;;;;;;18.33;18.33;;;;;-147.14;100.00;58812.66;5009699;28;45574;-68
2022/11/11 14:03:49;;;;;;;;;22.67;19.67;;;;;-147.14;100.00;58812.66;5005508;28;75199;-68
2022/11/11 14:06:15;;;;;;;;;15.00;13.00;;;;;-147.14;100.00;58812.66;5011549;28;45457;-68
2022/11/11 14:08:46;;;;;;;;;16.33;14.00;;;;;-147.14;100.00;58812.66;5016223;28;45418;-68
2022/11/11 14:11:23;;;;;;;;;24.33;18.33;;;;;-147.14;100.00;58812.66;5009412;28;45399;-68
2022/11/11 14:13:55;;;;;;;;;16.00;12.00;;;;;-147.14;100.00;58812.66;5008301;28;46273;-68
2022/11/11 14:16:33;;;;;;;;;17.33;13.33;;;;;-147.14;100.00;58812.66;5004989;28;45716;-68
2022/11/11 14:18:59;;;;;;;;;18.00;16.33;;;;;-147.14;100.00;58812.66;5004291;28;45329;-68
2022/11/11 14:21:56;;;;;;;;;23.00;17.67;;;;;-147.14;100.00;58812.66;5005599;28;45496;-68
2022/11/11 14:24:29;;;;;;;;;15.67;13.67;;;;;-147.14;100.00;58812.66;5011560;28;45384;-68
2022/11/11 14:27:02;;;;;;;;;14.00;12.33;;;;;-147.14;100.00;58812.66;5004348;28;45404;-68
2022/11/11 14:29:34;;;;;;;;;15.33;14.33;;;;;-147.14;100.00;58812.66;5016721;28;45413;-68
2022/11/11 14:32:22;;;;;;;;;16.67;14.33;;;;;-147.14;100.00;58812.66;5007826;28;45624;-68
2022/11/11 14:34:53;;;;;;;;;17.67;14.67;;;;;-147.14;100.00;58812.66;4982917;28;45832;-68
2022/11/11 14:37:42;;;;;;;;;16.33;12.67;;;;;-147.14;100.00;58812.66;4997116;28;45855;-68
2022/11/11 14:40:12;;;;;;;;;19.00;15.00;;;;;-147.14;100.00;58812.66;5009152;28;45424;-68
2022/11/11 14:42:37;;;;;;;;;13.67;13.00;;;;;-147.14;100.00;58812.66;5010267;28;45309;-68
2022/11/11 14:45:28;;;;;;;;;15.33;13.00;;;;;-147.14;100.00;58812.66;5008757;28;45880;-68
2022/11/11 14:47:55;;;;;;;;;15.00;15.00;;;;;-147.14;100.00;58812.66;5010621;28;45453;-68
2022/11/11 14:50:29;;;;;;;;;13.67;13.33;;;;;-147.14;100.00;58812.66;5014935;28;45458;-68
2022/11/11 14:52:56;;;;;;;;;15.33;15.33;;;;;-147.14;100.00;58812.66;5003199;28;45388;-68
2022/11/11 14:55:34;;;;;;;;;18.67;18.00;;;;;-147.14;100.00;58812.66;5009342;28;46288;-68
2022/11/11 14:58:13;;;;;;;;;14.33;14.00;;;;;-147.14;100.00;58812.66;5003555;28;45419;-68
2022/11/11 15:00:48;;;;;;;;;16.67;14.33;;;;;-147.14;100.00;58812.66;5015478;28;45500;-68
2022/11/11 15:03:28;;;;;;;;;16.33;13.33;;;;;-147.14;100.00;58812.66;5010033;28;45385;-69
2022/11/11 15:06:03;;;;;;;;;16.67;15.67;;;;;-147.14;100.00;58812.66;5011964;28;46330;-69
2022/11/11 15:08:45;;;;;;;;;18.67;16.33;;;;;-147.14;100.00;58812.66;5010327;28;45467;-68
2022/11/11 15:11:24;;;;;;;;;16.67;16.67;;;;;-147.14;100.00;58812.66;5020121;28;45627;-69
2022/11/11 15:14:14;;;;;;;;;16.00;14.67;;;;;-147.14;100.00;58812.66;5014467;28;45485;-69
2022/11/11 15:16:57;;;;;;;;;18.50;17.50;;;;;-147.14;100.00;58812.66;5013534;28;45382;-69
2022/11/11 15:20:07;;;;;;;;;15.00;15.00;;;;;-147.14;100.00;58812.66;5008480;28;45349;-69
2022/11/11 15:22:50;;;;;;;;;20.33;19.67;;;;;-147.14;100.00;58812.66;5014274;28;45429;-69
2022/11/11 15:25:47;;;;;;;;;23.67;19.00;;;;;-147.14;100.00;58812.66;5014167;28;45618;-69
2022/11/11 15:28:36;;;;;;;;;25.00;21.67;;;;;-147.14;100.00;58812.66;5004945;28;45417;-69
2022/11/11 15:31:24;;;;;;;;;23.67;20.33;;;;;-147.14;100.00;58812.66;5008603;28;45505;-69
2022/11/11 15:34:15;;;;;;;;;19.67;18.67;;;;;-147.14;100.00;58812.66;5004935;28;45318;-69
2022/11/11 15:37:00;;;;;;;;;19.67;18.33;;;;;-147.14;100.00;58812.66;5010049;28;45391;-69
2022/11/11 15:39:36;;;;;;;;;22.67;20.00;;;;;-147.14;100.00;58812.66;5006073;28;45873;-69
2022/11/11 15:42:02;;;;;;;;;19.33;18.33;;;;;-147.14;100.00;58812.66;5006902;28;45357;-69
2022/11/11 15:44:30;;;;;;;;;19.00;19.00;;;;;-147.14;100.00;58812.66;5007515;28;45332;-69
2022/11/11 15:46:56;;;;;;;;;23.00;21.00;;;;;-147.14;100.00;58812.66;5013806;28;45609;-69
2022/11/11 15:49:44;;;;;;;;;23.00;19.67;;;;;-147.14;100.00;58812.66;5008686;28;65466;-69
2022/11/11 15:52:29;;;;;;;;;21.67;20.67;;;;;-147.14;100.00;58812.66;5010397;28;45757;-69
2022/11/11 15:54:55;;;;;;;;;20.67;18.33;;;;;-147.14;100.00;58812.66;5012736;28;45652;-69
2022/11/11 15:57:22;;;;;;;;;20.67;20.33;;;;;-147.14;100.00;58812.66;5016904;28;45360;-69
2022/11/11 15:59:47;;;;;;;;;19.00;17.00;;;;;-147.14;100.00;58812.66;5000855;28;45681;-69
2022/11/11 16:02:18;;;;;;;;;20.33;18.67;;;;;-147.14;100.00;58812.66;5003617;28;60195;-69
2022/11/11 16:05:05;;;;;;;;;18.67;16.67;;;;;-147.14;100.00;58812.66;5004604;28;45443;-69
2022/11/11 16:07:35;;;;;;;;;18.67;17.00;;;;;-147.14;100.00;58812.66;5013145;28;45607;-69
2022/11/11 16:10:16;;;;;;;;;20.33;19.00;;;;;-147.14;100.00;58812.66;5016656;28;46140;-69
2022/11/11 16:12:50;;;;;;;;;21.00;19.67;;;;;-147.14;100.00;58812.66;5002131;28;45583;-69
2022/11/11 16:15:43;;;;;;;;;18.00;14.00;;;;;-147.14;100.00;58812.66;5013260;28;45468;-69
2022/11/11 16:18:17;;;;;;;;;21.67;21.33;;;;;-147.14;100.00;58812.66;5008159;28;47283;-69
2022/11/11 16:20:50;;;;;;;;;20.33;17.67;;;;;-147.14;100.00;58812.66;5008002;28;45450;-68
2022/11/11 16:23:17;;;;;;;;;22.33;20.33;;;;;-147.14;100.00;58812.66;5000693;28;45639;-68
2022/11/11 16:25:43;;;;;;;;;27.67;20.00;;;;;-147.14;100.00;58812.66;5012200;28;45444;-67
2022/11/11 16:28:10;;;;;;;;;25.67;23.00;;;;;-147.14;100.00;58812.66;5007386;28;46107;-68
2022/11/11 16:30:36;;;;;;;;;21.00;18.00;;;;;-147.14;100.00;58812.66;5002564;28;46227;-64
2022/11/11 16:33:03;;;;;;;;;17.00;15.33;;;;;-147.14;100.00;58812.66;5003198;28;45432;-64
2022/11/11 16:35:31;;;;;;;;;22.33;20.33;;;;;-147.14;100.00;58812.66;5006604;28;45551;-64
2022/11/11 16:37:56;;;;;;;;;18.33;16.67;;;;;-147.14;100.00;58812.66;5011045;28;45593;-64
2022/11/11 16:40:31;;;;;;;;;16.67;16.33;;;;;-147.14;100.00;58812.66;5006880;28;45873;-64
2022/11/11 16:43:56;;;;;;;;;26.67;25.00;;;;;-147.14;100.00;58812.66;5012572;28;45515;-64
2022/11/11 16:46:34;;;;;;;;;30.33;25.67;;;;;-147.14;100.00;58812.66;4989860;28;45606;-66
2022/11/11 16:49:01;;;;;;;;;20.33;19.67;;;;;-147.14;100.00;58812.66;4999443;28;45480;-65
2022/11/11 16:51:41;;;;;;;;;23.33;21.67;;;;;-147.14;100.00;58812.66;4997104;28;46192;-65
2022/11/11 16:54:12;;;;;;;;;19.00;19.00;;;;;-147.14;100.00;58812.66;4999482;28;45455;-65
2022/11/11 16:56:41;;;;;;;;;20.67;19.33;;;;;-147.14;100.00;58812.66;4999954;28;45337;-65
2022/11/11 16:59:33;;;;;;;;;18.00;16.67;;;;;-147.14;100.00;58812.66;5000036;28;45417;-65